Aviation Digital Data Service (ADDS)

Output produced by METARs form (1246 UTC 21 February 2018)
found at http://www.aviationweather.gov/adds/metars/
 
ZGGG 211230Z 01005MPS 9999 OVC023 17/12 Q1016 NOSIG
ZBTJ 211230Z 21002MPS CAVOK 03/M16 Q1021 NOSIG
ZBAA 211230Z 31004MPS 270V340 CAVOK 06/M23 Q1020 NOSIG
ZWWW 211230Z 00000MPS 1600 -SN BR BKN020 M11/M13 Q1026 NOSIG
ZSSS 211230Z 09002MPS 060V130 9999 FEW016 OVC040 06/02 Q1025 NOSIG
ZSPD 211230Z 05003MPS CAVOK 06/02 Q1026 NOSIG
ZYTX 211230Z 17002MPS 7000 NSC M05/M18 Q1019 NOSIG
ZBYN 211230Z 26002MPS CAVOK 01/M20 Q1021 NOSIG
ZSHC 211230Z 01003MPS 340V040 3000 -RA BR SCT010 BKN023 06/05 Q1025 NOSIG
ZYTL 211230Z 25004MPS 210V280 CAVOK 01/M09 Q1022 NOSIG